Pengilly, Minnesota
Current Conditions -  °F | °C
As of 4:53 PM on Wednesday 22 Oct 2014 (Local Time) from KHIB Reporting Station
Clear Clear  
Wind Chill: 58°   Ceiling: Unl
Heat Index: 58°   Visibility: 10mi
Dew Point: 39°   Wind: 15mph
Humidity: 49%   Direction: 160°SSE
Pressure: 30"   Gusts: 24mph
Location:  47.33°N, 93.2°W
Report Text: KHIB 222153Z AUTO 16013G21KT 10SM CLR 14/04 A3000 RMK AO2 SLP168 T01440039
Loading
Personal Weather Stations






























Interactive Weather Map
Tropical Storm Tracking
New forecast layout! Learn more

10-Day Weather Forecast

Advertisements
Track Severe Weather on mobile